sensor_id;sensor_type;location;lat;lon;timestamp;P1;durP1;ratioP1;P2;durP2;ratioP2
14883;SDS011;7534;50.762;7.000;2022-11-27T00:01:18;8.73;;;4.10;;
14883;SDS011;7534;50.762;7.000;2022-11-27T00:03:56;11.33;;;4.00;;
14883;SDS011;7534;50.762;7.000;2022-11-27T00:06:26;11.63;;;3.87;;
14883;SDS011;7534;50.762;7.000;2022-11-27T00:08:54;7.77;;;3.77;;
14883;SDS011;7534;50.762;7.000;2022-11-27T00:11:22;7.03;;;3.90;;
14883;SDS011;7534;50.762;7.000;2022-11-27T00:13:50;10.00;;;3.87;;
14883;SDS011;7534;50.762;7.000;2022-11-27T00:16:17;14.50;;;4.90;;
14883;SDS011;7534;50.762;7.000;2022-11-27T00:18:44;15.10;;;4.10;;
14883;SDS011;7534;50.762;7.000;2022-11-27T00:21:11;7.93;;;3.93;;
14883;SDS011;7534;50.762;7.000;2022-11-27T00:23:41;7.23;;;3.40;;
14883;SDS011;7534;50.762;7.000;2022-11-27T00:26:08;8.50;;;4.07;;
14883;SDS011;7534;50.762;7.000;2022-11-27T00:28:37;9.93;;;4.30;;
14883;SDS011;7534;50.762;7.000;2022-11-27T00:31:04;9.00;;;4.97;;
14883;SDS011;7534;50.762;7.000;2022-11-27T00:33:36;9.90;;;4.33;;
14883;SDS011;7534;50.762;7.000;2022-11-27T00:36:03;9.37;;;5.37;;
14883;SDS011;7534;50.762;7.000;2022-11-27T00:38:31;8.40;;;4.30;;
14883;SDS011;7534;50.762;7.000;2022-11-27T00:41:03;10.00;;;4.60;;
14883;SDS011;7534;50.762;7.000;2022-11-27T00:43:34;10.57;;;4.47;;
14883;SDS011;7534;50.762;7.000;2022-11-27T00:46:02;9.50;;;3.87;;
14883;SDS011;7534;50.762;7.000;2022-11-27T00:48:28;9.50;;;3.97;;
14883;SDS011;7534;50.762;7.000;2022-11-27T00:51:05;9.40;;;3.93;;
14883;SDS011;7534;50.762;7.000;2022-11-27T00:53:33;7.43;;;3.73;;
14883;SDS011;7534;50.762;7.000;2022-11-27T00:56:00;10.00;;;4.00;;
14883;SDS011;7534;50.762;7.000;2022-11-27T00:58:27;8.97;;;3.80;;
14883;SDS011;7534;50.762;7.000;2022-11-27T01:00:58;9.17;;;4.03;;
14883;SDS011;7534;50.762;7.000;2022-11-27T01:03:27;11.23;;;4.40;;
14883;SDS011;7534;50.762;7.000;2022-11-27T01:05:55;8.93;;;4.10;;
14883;SDS011;7534;50.762;7.000;2022-11-27T01:08:22;10.83;;;4.10;;
14883;SDS011;7534;50.762;7.000;2022-11-27T01:10:52;8.50;;;4.23;;
14883;SDS011;7534;50.762;7.000;2022-11-27T01:13:39;10.03;;;4.23;;
14883;SDS011;7534;50.762;7.000;2022-11-27T01:16:06;10.13;;;4.40;;
14883;SDS011;7534;50.762;7.000;2022-11-27T01:18:36;7.40;;;4.33;;
14883;SDS011;7534;50.762;7.000;2022-11-27T01:21:05;11.37;;;3.97;;
14883;SDS011;7534;50.762;7.000;2022-11-27T01:23:31;8.23;;;4.03;;
14883;SDS011;7534;50.762;7.000;2022-11-27T01:26:01;8.67;;;4.33;;
14883;SDS011;7534;50.762;7.000;2022-11-27T01:28:30;11.10;;;4.47;;
14883;SDS011;7534;50.762;7.000;2022-11-27T01:30:57;8.30;;;3.93;;
14883;SDS011;7534;50.762;7.000;2022-11-27T01:33:23;11.90;;;4.30;;
14883;SDS011;7534;50.762;7.000;2022-11-27T01:35:56;9.47;;;4.17;;
14883;SDS011;7534;50.762;7.000;2022-11-27T01:38:28;9.10;;;3.87;;
14883;SDS011;7534;50.762;7.000;2022-11-27T01:40:58;5.60;;;3.73;;
14883;SDS011;7534;50.762;7.000;2022-11-27T01:43:54;7.83;;;3.93;;
14883;SDS011;7534;50.762;7.000;2022-11-27T01:46:26;10.50;;;4.23;;
14883;SDS011;7534;50.762;7.000;2022-11-27T01:49:01;11.13;;;4.47;;
14883;SDS011;7534;50.762;7.000;2022-11-27T01:54:17;9.77;;;4.33;;
14883;SDS011;7534;50.762;7.000;2022-11-27T01:56:49;11.87;;;4.43;;
14883;SDS011;7534;50.762;7.000;2022-11-27T01:59:23;10.87;;;4.43;;
14883;SDS011;7534;50.762;7.000;2022-11-27T02:01:49;8.27;;;4.27;;
14883;SDS011;7534;50.762;7.000;2022-11-27T02:04:15;8.50;;;4.13;;
14883;SDS011;7534;50.762;7.000;2022-11-27T02:06:43;11.33;;;4.37;;
14883;SDS011;7534;50.762;7.000;2022-11-27T02:09:09;8.43;;;4.20;;
14883;SDS011;7534;50.762;7.000;2022-11-27T02:14:21;9.60;;;4.27;;
14883;SDS011;7534;50.762;7.000;2022-11-27T02:17:13;11.67;;;4.70;;
14883;SDS011;7534;50.762;7.000;2022-11-27T02:29:18;9.63;;;4.77;;
14883;SDS011;7534;50.762;7.000;2022-11-27T02:31:50;14.97;;;5.40;;
14883;SDS011;7534;50.762;7.000;2022-11-27T02:37:47;11.00;;;5.07;;
14883;SDS011;7534;50.762;7.000;2022-11-27T02:43:24;10.33;;;5.00;;
14883;SDS011;7534;50.762;7.000;2022-11-27T02:45:58;14.23;;;5.83;;
14883;SDS011;7534;50.762;7.000;2022-11-27T02:48:42;13.57;;;5.63;;
14883;SDS011;7534;50.762;7.000;2022-11-27T02:51:37;14.20;;;6.07;;
14883;SDS011;7534;50.762;7.000;2022-11-27T02:54:10;13.93;;;6.37;;
14883;SDS011;7534;50.762;7.000;2022-11-27T02:56:44;16.03;;;6.47;;
14883;SDS011;7534;50.762;7.000;2022-11-27T02:59:12;15.33;;;6.17;;
14883;SDS011;7534;50.762;7.000;2022-11-27T03:01:42;12.00;;;6.03;;
14883;SDS011;7534;50.762;7.000;2022-11-27T03:04:17;13.17;;;6.47;;
14883;SDS011;7534;50.762;7.000;2022-11-27T03:06:55;13.43;;;6.90;;
14883;SDS011;7534;50.762;7.000;2022-11-27T03:09:31;13.40;;;6.67;;
14883;SDS011;7534;50.762;7.000;2022-11-27T03:12:03;13.03;;;6.40;;
14883;SDS011;7534;50.762;7.000;2022-11-27T03:14:32;14.83;;;7.37;;
14883;SDS011;7534;50.762;7.000;2022-11-27T03:20:20;14.80;;;6.77;;
14883;SDS011;7534;50.762;7.000;2022-11-27T03:22:50;17.07;;;7.40;;
14883;SDS011;7534;50.762;7.000;2022-11-27T03:25:21;18.40;;;6.83;;
14883;SDS011;7534;50.762;7.000;2022-11-27T03:27:53;16.17;;;6.63;;
14883;SDS011;7534;50.762;7.000;2022-11-27T03:30:25;14.67;;;7.17;;
14883;SDS011;7534;50.762;7.000;2022-11-27T03:32:52;16.53;;;6.83;;
14883;SDS011;7534;50.762;7.000;2022-11-27T03:35:19;13.77;;;6.77;;
14883;SDS011;7534;50.762;7.000;2022-11-27T03:37:49;15.83;;;7.27;;
14883;SDS011;7534;50.762;7.000;2022-11-27T03:40:16;13.70;;;7.07;;
14883;SDS011;7534;50.762;7.000;2022-11-27T03:46:04;14.27;;;7.73;;
14883;SDS011;7534;50.762;7.000;2022-11-27T03:48:47;16.37;;;7.60;;
14883;SDS011;7534;50.762;7.000;2022-11-27T03:51:47;14.13;;;6.60;;
14883;SDS011;7534;50.762;7.000;2022-11-27T04:00:05;13.60;;;6.93;;
14883;SDS011;7534;50.762;7.000;2022-11-27T04:02:39;19.43;;;8.30;;
14883;SDS011;7534;50.762;7.000;2022-11-27T04:05:14;15.53;;;7.23;;
14883;SDS011;7534;50.762;7.000;2022-11-27T04:07:42;15.77;;;7.70;;
14883;SDS011;7534;50.762;7.000;2022-11-27T04:10:08;14.13;;;7.57;;
14883;SDS011;7534;50.762;7.000;2022-11-27T04:12:35;15.63;;;7.83;;
14883;SDS011;7534;50.762;7.000;2022-11-27T04:15:01;13.63;;;7.90;;
14883;SDS011;7534;50.762;7.000;2022-11-27T04:17:29;14.53;;;8.63;;
14883;SDS011;7534;50.762;7.000;2022-11-27T04:19:54;16.57;;;7.47;;
14883;SDS011;7534;50.762;7.000;2022-11-27T04:22:20;15.83;;;8.20;;
14883;SDS011;7534;50.762;7.000;2022-11-27T04:24:46;14.93;;;7.10;;
14883;SDS011;7534;50.762;7.000;2022-11-27T04:27:11;16.50;;;7.63;;
14883;SDS011;7534;50.762;7.000;2022-11-27T04:29:37;13.47;;;7.77;;
14883;SDS011;7534;50.762;7.000;2022-11-27T04:32:03;15.80;;;7.33;;
14883;SDS011;7534;50.762;7.000;2022-11-27T04:34:30;20.43;;;8.33;;
14883;SDS011;7534;50.762;7.000;2022-11-27T04:36:56;13.33;;;7.97;;
14883;SDS011;7534;50.762;7.000;2022-11-27T04:39:22;13.57;;;7.40;;
14883;SDS011;7534;50.762;7.000;2022-11-27T04:41:48;14.50;;;7.50;;
14883;SDS011;7534;50.762;7.000;2022-11-27T04:44:14;12.10;;;6.93;;
14883;SDS011;7534;50.762;7.000;2022-11-27T04:46:40;13.90;;;7.57;;
14883;SDS011;7534;50.762;7.000;2022-11-27T04:49:06;13.07;;;7.27;;
14883;SDS011;7534;50.762;7.000;2022-11-27T04:51:34;12.90;;;6.77;;
14883;SDS011;7534;50.762;7.000;2022-11-27T04:53:59;15.00;;;7.23;;
14883;SDS011;7534;50.762;7.000;2022-11-27T04:56:25;15.40;;;7.60;;
14883;SDS011;7534;50.762;7.000;2022-11-27T04:58:51;15.63;;;7.80;;
14883;SDS011;7534;50.762;7.000;2022-11-27T05:01:17;13.30;;;7.17;;
14883;SDS011;7534;50.762;7.000;2022-11-27T05:03:42;12.37;;;7.10;;
14883;SDS011;7534;50.762;7.000;2022-11-27T05:06:08;10.87;;;6.73;;
14883;SDS011;7534;50.762;7.000;2022-11-27T05:08:34;14.13;;;7.40;;
14883;SDS011;7534;50.762;7.000;2022-11-27T05:11:07;12.23;;;6.23;;
14883;SDS011;7534;50.762;7.000;2022-11-27T05:13:37;11.10;;;7.13;;
14883;SDS011;7534;50.762;7.000;2022-11-27T05:16:03;11.57;;;6.97;;
14883;SDS011;7534;50.762;7.000;2022-11-27T05:18:30;11.73;;;6.93;;
14883;SDS011;7534;50.762;7.000;2022-11-27T05:20:57;11.63;;;6.10;;
14883;SDS011;7534;50.762;7.000;2022-11-27T05:23:26;8.80;;;6.07;;
14883;SDS011;7534;50.762;7.000;2022-11-27T05:25:53;14.23;;;6.43;;
14883;SDS011;7534;50.762;7.000;2022-11-27T05:28:19;11.90;;;6.47;;
14883;SDS011;7534;50.762;7.000;2022-11-27T05:30:46;10.43;;;6.50;;
14883;SDS011;7534;50.762;7.000;2022-11-27T05:33:13;12.97;;;6.17;;
14883;SDS011;7534;50.762;7.000;2022-11-27T05:35:41;12.00;;;6.27;;
14883;SDS011;7534;50.762;7.000;2022-11-27T05:38:09;11.13;;;5.77;;
14883;SDS011;7534;50.762;7.000;2022-11-27T05:40:37;11.63;;;6.10;;
14883;SDS011;7534;50.762;7.000;2022-11-27T05:43:03;9.50;;;5.57;;
14883;SDS011;7534;50.762;7.000;2022-11-27T05:45:29;11.27;;;6.30;;
14883;SDS011;7534;50.762;7.000;2022-11-27T05:47:55;10.60;;;5.60;;
14883;SDS011;7534;50.762;7.000;2022-11-27T05:50:22;12.17;;;6.20;;
14883;SDS011;7534;50.762;7.000;2022-11-27T05:52:47;10.33;;;5.73;;
14883;SDS011;7534;50.762;7.000;2022-11-27T05:55:13;8.63;;;5.50;;
14883;SDS011;7534;50.762;7.000;2022-11-27T05:57:39;7.93;;;5.53;;
14883;SDS011;7534;50.762;7.000;2022-11-27T06:00:05;10.50;;;5.60;;
14883;SDS011;7534;50.762;7.000;2022-11-27T06:02:33;11.23;;;5.87;;
14883;SDS011;7534;50.762;7.000;2022-11-27T06:04:59;10.87;;;5.87;;
14883;SDS011;7534;50.762;7.000;2022-11-27T06:07:24;8.83;;;5.67;;
14883;SDS011;7534;50.762;7.000;2022-11-27T06:09:50;8.20;;;5.03;;
14883;SDS011;7534;50.762;7.000;2022-11-27T06:12:16;7.30;;;5.33;;
14883;SDS011;7534;50.762;7.000;2022-11-27T06:14:42;10.00;;;5.53;;
14883;SDS011;7534;50.762;7.000;2022-11-27T06:17:07;10.70;;;5.03;;
14883;SDS011;7534;50.762;7.000;2022-11-27T06:19:33;10.63;;;5.57;;
14883;SDS011;7534;50.762;7.000;2022-11-27T06:21:59;7.73;;;5.60;;
14883;SDS011;7534;50.762;7.000;2022-11-27T06:24:24;8.03;;;4.87;;
14883;SDS011;7534;50.762;7.000;2022-11-27T06:26:50;7.00;;;5.57;;
14883;SDS011;7534;50.762;7.000;2022-11-27T06:29:18;9.10;;;5.20;;
14883;SDS011;7534;50.762;7.000;2022-11-27T06:31:44;8.30;;;5.03;;
14883;SDS011;7534;50.762;7.000;2022-11-27T06:34:10;7.80;;;5.30;;
14883;SDS011;7534;50.762;7.000;2022-11-27T06:36:37;9.53;;;5.30;;
14883;SDS011;7534;50.762;7.000;2022-11-27T06:39:05;10.20;;;4.93;;
14883;SDS011;7534;50.762;7.000;2022-11-27T06:41:34;8.63;;;4.70;;
14883;SDS011;7534;50.762;7.000;2022-11-27T06:44:00;6.73;;;4.40;;
14883;SDS011;7534;50.762;7.000;2022-11-27T06:46:26;7.13;;;4.33;;
14883;SDS011;7534;50.762;7.000;2022-11-27T06:48:54;6.77;;;4.93;;
14883;SDS011;7534;50.762;7.000;2022-11-27T06:51:23;6.77;;;4.53;;
14883;SDS011;7534;50.762;7.000;2022-11-27T06:53:52;7.10;;;4.53;;
14883;SDS011;7534;50.762;7.000;2022-11-27T06:56:20;8.00;;;4.57;;
14883;SDS011;7534;50.762;7.000;2022-11-27T06:58:50;7.03;;;4.50;;
14883;SDS011;7534;50.762;7.000;2022-11-27T07:01:23;7.27;;;4.47;;
14883;SDS011;7534;50.762;7.000;2022-11-27T07:03:50;8.33;;;4.37;;
14883;SDS011;7534;50.762;7.000;2022-11-27T07:06:18;6.40;;;4.37;;
14883;SDS011;7534;50.762;7.000;2022-11-27T07:08:48;7.33;;;4.27;;
14883;SDS011;7534;50.762;7.000;2022-11-27T07:11:15;9.60;;;4.33;;
14883;SDS011;7534;50.762;7.000;2022-11-27T07:13:45;7.23;;;4.00;;
14883;SDS011;7534;50.762;7.000;2022-11-27T07:16:13;6.23;;;3.87;;
14883;SDS011;7534;50.762;7.000;2022-11-27T07:18:46;7.60;;;4.40;;
14883;SDS011;7534;50.762;7.000;2022-11-27T07:21:15;6.23;;;4.60;;
14883;SDS011;7534;50.762;7.000;2022-11-27T07:23:41;5.67;;;4.57;;
14883;SDS011;7534;50.762;7.000;2022-11-27T07:26:10;5.63;;;4.90;;
14883;SDS011;7534;50.762;7.000;2022-11-27T07:28:48;7.27;;;4.53;;
14883;SDS011;7534;50.762;7.000;2022-11-27T07:31:16;7.40;;;3.93;;
14883;SDS011;7534;50.762;7.000;2022-11-27T07:33:45;8.00;;;4.47;;
14883;SDS011;7534;50.762;7.000;2022-11-27T07:36:18;6.97;;;4.00;;
14883;SDS011;7534;50.762;7.000;2022-11-27T07:38:47;6.53;;;4.37;;
14883;SDS011;7534;50.762;7.000;2022-11-27T07:41:14;5.50;;;4.00;;
14883;SDS011;7534;50.762;7.000;2022-11-27T07:43:41;8.70;;;4.30;;
14883;SDS011;7534;50.762;7.000;2022-11-27T07:46:19;8.00;;;4.70;;
14883;SDS011;7534;50.762;7.000;2022-11-27T07:48:46;9.60;;;4.60;;
14883;SDS011;7534;50.762;7.000;2022-11-27T07:51:13;7.23;;;4.33;;
14883;SDS011;7534;50.762;7.000;2022-11-27T07:53:43;8.33;;;4.63;;
14883;SDS011;7534;50.762;7.000;2022-11-27T07:56:10;6.00;;;3.97;;
14883;SDS011;7534;50.762;7.000;2022-11-27T07:58:38;6.90;;;3.87;;
14883;SDS011;7534;50.762;7.000;2022-11-27T08:01:05;7.63;;;4.23;;
14883;SDS011;7534;50.762;7.000;2022-11-27T08:03:35;5.83;;;3.73;;
14883;SDS011;7534;50.762;7.000;2022-11-27T08:06:02;5.47;;;3.80;;
14883;SDS011;7534;50.762;7.000;2022-11-27T08:08:29;6.73;;;3.80;;
14883;SDS011;7534;50.762;7.000;2022-11-27T08:10:55;5.67;;;3.83;;
14883;SDS011;7534;50.762;7.000;2022-11-27T08:13:21;6.53;;;4.17;;
14883;SDS011;7534;50.762;7.000;2022-11-27T08:15:46;7.07;;;4.07;;
14883;SDS011;7534;50.762;7.000;2022-11-27T08:18:12;7.47;;;4.80;;
14883;SDS011;7534;50.762;7.000;2022-11-27T08:20:38;5.03;;;3.80;;
14883;SDS011;7534;50.762;7.000;2022-11-27T08:23:04;4.57;;;3.30;;
14883;SDS011;7534;50.762;7.000;2022-11-27T08:25:30;6.03;;;4.67;;
14883;SDS011;7534;50.762;7.000;2022-11-27T08:27:56;6.07;;;4.17;;
14883;SDS011;7534;50.762;7.000;2022-11-27T08:30:22;5.07;;;3.67;;
14883;SDS011;7534;50.762;7.000;2022-11-27T08:32:48;4.10;;;3.47;;
14883;SDS011;7534;50.762;7.000;2022-11-27T08:35:14;4.50;;;3.70;;
14883;SDS011;7534;50.762;7.000;2022-11-27T08:37:40;6.43;;;3.50;;
14883;SDS011;7534;50.762;7.000;2022-11-27T08:40:06;5.17;;;3.37;;
14883;SDS011;7534;50.762;7.000;2022-11-27T08:42:32;4.73;;;3.30;;
14883;SDS011;7534;50.762;7.000;2022-11-27T08:44:58;3.50;;;3.20;;
14883;SDS011;7534;50.762;7.000;2022-11-27T08:47:23;6.87;;;3.50;;
14883;SDS011;7534;50.762;7.000;2022-11-27T08:49:49;4.33;;;3.17;;
14883;SDS011;7534;50.762;7.000;2022-11-27T08:52:15;5.47;;;3.60;;
14883;SDS011;7534;50.762;7.000;2022-11-27T08:54:40;5.73;;;3.50;;
14883;SDS011;7534;50.762;7.000;2022-11-27T08:57:06;4.30;;;3.73;;
14883;SDS011;7534;50.762;7.000;2022-11-27T08:59:32;6.60;;;3.57;;
14883;SDS011;7534;50.762;7.000;2022-11-27T09:01:58;4.53;;;3.73;;
14883;SDS011;7534;50.762;7.000;2022-11-27T09:04:23;5.30;;;3.57;;
14883;SDS011;7534;50.762;7.000;2022-11-27T09:06:49;4.37;;;3.37;;
14883;SDS011;7534;50.762;7.000;2022-11-27T09:09:15;6.33;;;3.60;;
14883;SDS011;7534;50.762;7.000;2022-11-27T09:11:41;5.10;;;3.70;;
14883;SDS011;7534;50.762;7.000;2022-11-27T09:14:07;5.53;;;3.50;;
14883;SDS011;7534;50.762;7.000;2022-11-27T09:16:33;6.80;;;3.63;;
14883;SDS011;7534;50.762;7.000;2022-11-27T09:19:00;4.47;;;3.37;;
14883;SDS011;7534;50.762;7.000;2022-11-27T09:21:27;5.63;;;3.78;;
14883;SDS011;7534;50.762;7.000;2022-11-27T09:23:56;4.27;;;3.37;;
14883;SDS011;7534;50.762;7.000;2022-11-27T09:26:24;5.13;;;3.57;;
14883;SDS011;7534;50.762;7.000;2022-11-27T09:28:52;5.13;;;3.57;;
14883;SDS011;7534;50.762;7.000;2022-11-27T09:31:20;5.80;;;3.63;;
14883;SDS011;7534;50.762;7.000;2022-11-27T09:33:46;4.10;;;3.70;;
14883;SDS011;7534;50.762;7.000;2022-11-27T09:36:14;5.10;;;3.60;;
14883;SDS011;7534;50.762;7.000;2022-11-27T09:38:44;5.67;;;3.97;;
14883;SDS011;7534;50.762;7.000;2022-11-27T09:43:45;4.97;;;3.80;;
14883;SDS011;7534;50.762;7.000;2022-11-27T09:46:57;7.43;;;3.90;;
14883;SDS011;7534;50.762;7.000;2022-11-27T09:49:18;4.57;;;3.57;;
14883;SDS011;7534;50.762;7.000;2022-11-27T09:51:52;6.67;;;3.90;;
14883;SDS011;7534;50.762;7.000;2022-11-27T09:57:09;6.23;;;4.13;;
14883;SDS011;7534;50.762;7.000;2022-11-27T09:59:48;4.27;;;3.33;;
14883;SDS011;7534;50.762;7.000;2022-11-27T10:02:24;5.27;;;4.00;;
14883;SDS011;7534;50.762;7.000;2022-11-27T10:04:57;5.27;;;3.50;;
14883;SDS011;7534;50.762;7.000;2022-11-27T10:10:15;4.20;;;3.60;;
14883;SDS011;7534;50.762;7.000;2022-11-27T10:16:34;6.90;;;3.90;;
14883;SDS011;7534;50.762;7.000;2022-11-27T10:25:37;5.73;;;3.47;;
14883;SDS011;7534;50.762;7.000;2022-11-27T10:33:55;6.33;;;3.50;;
14883;SDS011;7534;50.762;7.000;2022-11-27T10:36:30;6.03;;;3.33;;
14883;SDS011;7534;50.762;7.000;2022-11-27T10:39:05;4.10;;;3.27;;
14883;SDS011;7534;50.762;7.000;2022-11-27T10:41:46;4.73;;;3.67;;
14883;SDS011;7534;50.762;7.000;2022-11-27T10:44:47;5.40;;;3.57;;
14883;SDS011;7534;50.762;7.000;2022-11-27T10:47:30;5.07;;;3.53;;
14883;SDS011;7534;50.762;7.000;2022-11-27T10:49:57;3.97;;;3.13;;
14883;SDS011;7534;50.762;7.000;2022-11-27T10:52:23;3.73;;;3.30;;
14883;SDS011;7534;50.762;7.000;2022-11-27T10:54:52;4.90;;;3.23;;
14883;SDS011;7534;50.762;7.000;2022-11-27T11:01:10;5.43;;;3.70;;
14883;SDS011;7534;50.762;7.000;2022-11-27T11:03:39;5.40;;;3.70;;
14883;SDS011;7534;50.762;7.000;2022-11-27T11:06:27;4.70;;;3.87;;
14883;SDS011;7534;50.762;7.000;2022-11-27T11:09:02;6.13;;;4.10;;
14883;SDS011;7534;50.762;7.000;2022-11-27T11:11:36;6.03;;;4.30;;
14883;SDS011;7534;50.762;7.000;2022-11-27T11:14:02;5.53;;;4.40;;
14883;SDS011;7534;50.762;7.000;2022-11-27T11:16:40;8.47;;;4.60;;
14883;SDS011;7534;50.762;7.000;2022-11-27T11:21:54;6.60;;;4.80;;
14883;SDS011;7534;50.762;7.000;2022-11-27T11:24:27;7.17;;;4.70;;
14883;SDS011;7534;50.762;7.000;2022-11-27T11:27:00;7.50;;;4.57;;
14883;SDS011;7534;50.762;7.000;2022-11-27T11:29:39;6.43;;;4.40;;
14883;SDS011;7534;50.762;7.000;2022-11-27T11:34:53;4.40;;;4.00;;
14883;SDS011;7534;50.762;7.000;2022-11-27T11:40:36;5.83;;;4.00;;
14883;SDS011;7534;50.762;7.000;2022-11-27T11:42:36;5.83;;;4.33;;
14883;SDS011;7534;50.762;7.000;2022-11-27T11:45:19;9.60;;;7.13;;
14883;SDS011;7534;50.762;7.000;2022-11-27T11:47:50;7.10;;;5.47;;
14883;SDS011;7534;50.762;7.000;2022-11-27T11:51:21;7.50;;;4.57;;
14883;SDS011;7534;50.762;7.000;2022-11-27T11:56:31;6.60;;;4.33;;
14883;SDS011;7534;50.762;7.000;2022-11-27T12:04:57;5.77;;;4.30;;
14883;SDS011;7534;50.762;7.000;2022-11-27T12:13:27;5.20;;;3.53;;
14883;SDS011;7534;50.762;7.000;2022-11-27T12:28:04;6.20;;;4.20;;
14883;SDS011;7534;50.762;7.000;2022-11-27T12:30:50;6.73;;;4.07;;
14883;SDS011;7534;50.762;7.000;2022-11-27T12:33:32;5.53;;;3.83;;
14883;SDS011;7534;50.762;7.000;2022-11-27T12:39:32;5.67;;;4.13;;
14883;SDS011;7534;50.762;7.000;2022-11-27T12:42:35;6.03;;;4.20;;
14883;SDS011;7534;50.762;7.000;2022-11-27T12:45:24;5.33;;;3.93;;
14883;SDS011;7534;50.762;7.000;2022-11-27T12:51:05;4.87;;;3.80;;
14883;SDS011;7534;50.762;7.000;2022-11-27T12:56:14;6.20;;;4.30;;
14883;SDS011;7534;50.762;7.000;2022-11-27T13:05:40;6.67;;;3.60;;
14883;SDS011;7534;50.762;7.000;2022-11-27T13:08:26;4.73;;;3.70;;
14883;SDS011;7534;50.762;7.000;2022-11-27T13:11:12;5.00;;;3.50;;
14883;SDS011;7534;50.762;7.000;2022-11-27T13:13:51;5.50;;;3.67;;
14883;SDS011;7534;50.762;7.000;2022-11-27T13:19:33;3.97;;;3.40;;
14883;SDS011;7534;50.762;7.000;2022-11-27T13:22:10;4.97;;;3.33;;
14883;SDS011;7534;50.762;7.000;2022-11-27T13:24:45;4.53;;;3.33;;
14883;SDS011;7534;50.762;7.000;2022-11-27T13:27:15;5.53;;;3.63;;
14883;SDS011;7534;50.762;7.000;2022-11-27T13:29:58;5.53;;;3.60;;
14883;SDS011;7534;50.762;7.000;2022-11-27T13:32:30;4.57;;;3.40;;
14883;SDS011;7534;50.762;7.000;2022-11-27T13:38:10;5.07;;;3.30;;
14883;SDS011;7534;50.762;7.000;2022-11-27T13:40:50;6.67;;;3.50;;
14883;SDS011;7534;50.762;7.000;2022-11-27T13:43:21;3.97;;;3.43;;
14883;SDS011;7534;50.762;7.000;2022-11-27T13:48:34;4.50;;;3.37;;
14883;SDS011;7534;50.762;7.000;2022-11-27T13:51:05;4.27;;;3.20;;
14883;SDS011;7534;50.762;7.000;2022-11-27T13:53:42;4.23;;;3.17;;
14883;SDS011;7534;50.762;7.000;2022-11-27T13:56:08;5.00;;;3.30;;
14883;SDS011;7534;50.762;7.000;2022-11-27T13:58:38;5.87;;;3.60;;
14883;SDS011;7534;50.762;7.000;2022-11-27T14:03:42;4.43;;;3.53;;
14883;SDS011;7534;50.762;7.000;2022-11-27T14:06:18;3.93;;;3.00;;
14883;SDS011;7534;50.762;7.000;2022-11-27T14:08:59;3.63;;;3.23;;
14883;SDS011;7534;50.762;7.000;2022-11-27T14:14:12;6.10;;;3.60;;
14883;SDS011;7534;50.762;7.000;2022-11-27T14:16:52;5.13;;;3.63;;
14883;SDS011;7534;50.762;7.000;2022-11-27T14:19:30;5.33;;;3.33;;
14883;SDS011;7534;50.762;7.000;2022-11-27T14:22:12;5.00;;;3.70;;
14883;SDS011;7534;50.762;7.000;2022-11-27T14:24:39;5.97;;;3.63;;
14883;SDS011;7534;50.762;7.000;2022-11-27T14:27:21;5.80;;;3.37;;
14883;SDS011;7534;50.762;7.000;2022-11-27T14:29:50;7.50;;;4.13;;
14883;SDS011;7534;50.762;7.000;2022-11-27T14:32:17;4.47;;;3.57;;
14883;SDS011;7534;50.762;7.000;2022-11-27T14:34:45;5.40;;;3.60;;
14883;SDS011;7534;50.762;7.000;2022-11-27T14:37:22;4.90;;;3.53;;
14883;SDS011;7534;50.762;7.000;2022-11-27T14:39:51;5.73;;;3.77;;
14883;SDS011;7534;50.762;7.000;2022-11-27T14:42:22;5.22;;;4.22;;
14883;SDS011;7534;50.762;7.000;2022-11-27T14:45:05;5.07;;;4.20;;
14883;SDS011;7534;50.762;7.000;2022-11-27T14:47:38;4.37;;;3.53;;
14883;SDS011;7534;50.762;7.000;2022-11-27T14:50:12;5.90;;;4.00;;
14883;SDS011;7534;50.762;7.000;2022-11-27T14:52:40;5.03;;;3.70;;
14883;SDS011;7534;50.762;7.000;2022-11-27T14:55:15;4.80;;;3.87;;
14883;SDS011;7534;50.762;7.000;2022-11-27T14:57:42;5.57;;;4.23;;
14883;SDS011;7534;50.762;7.000;2022-11-27T15:02:41;4.37;;;3.80;;
14883;SDS011;7534;50.762;7.000;2022-11-27T15:05:15;7.60;;;5.07;;
14883;SDS011;7534;50.762;7.000;2022-11-27T15:07:52;9.17;;;5.63;;
14883;SDS011;7534;50.762;7.000;2022-11-27T15:10:27;9.30;;;6.23;;
14883;SDS011;7534;50.762;7.000;2022-11-27T15:13:00;10.93;;;7.20;;
14883;SDS011;7534;50.762;7.000;2022-11-27T15:15:30;7.13;;;5.00;;
14883;SDS011;7534;50.762;7.000;2022-11-27T15:18:03;5.67;;;5.07;;
14883;SDS011;7534;50.762;7.000;2022-11-27T15:20:40;6.73;;;5.00;;
14883;SDS011;7534;50.762;7.000;2022-11-27T15:31:02;8.60;;;5.40;;
14883;SDS011;7534;50.762;7.000;2022-11-27T15:33:53;9.27;;;5.80;;
14883;SDS011;7534;50.762;7.000;2022-11-27T15:36:53;8.17;;;5.13;;
14883;SDS011;7534;50.762;7.000;2022-11-27T15:39:37;6.80;;;5.23;;
14883;SDS011;7534;50.762;7.000;2022-11-27T15:42:16;7.67;;;5.43;;
14883;SDS011;7534;50.762;7.000;2022-11-27T15:44:43;8.77;;;5.57;;
14883;SDS011;7534;50.762;7.000;2022-11-27T15:49:47;7.13;;;5.80;;
14883;SDS011;7534;50.762;7.000;2022-11-27T15:52:12;8.90;;;5.97;;
14883;SDS011;7534;50.762;7.000;2022-11-27T15:54:38;7.43;;;5.97;;
14883;SDS011;7534;50.762;7.000;2022-11-27T15:57:04;8.33;;;5.90;;
14883;SDS011;7534;50.762;7.000;2022-11-27T15:59:30;8.97;;;6.10;;
14883;SDS011;7534;50.762;7.000;2022-11-27T16:01:56;9.77;;;6.27;;
14883;SDS011;7534;50.762;7.000;2022-11-27T16:04:22;9.07;;;5.97;;
14883;SDS011;7534;50.762;7.000;2022-11-27T16:06:48;9.73;;;5.80;;
14883;SDS011;7534;50.762;7.000;2022-11-27T16:09:14;8.17;;;6.20;;
14883;SDS011;7534;50.762;7.000;2022-11-27T16:11:41;10.40;;;6.70;;
14883;SDS011;7534;50.762;7.000;2022-11-27T16:14:06;9.80;;;7.10;;
14883;SDS011;7534;50.762;7.000;2022-11-27T16:16:32;6.63;;;5.93;;
14883;SDS011;7534;50.762;7.000;2022-11-27T16:18:59;7.03;;;6.33;;
14883;SDS011;7534;50.762;7.000;2022-11-27T16:21:28;10.10;;;6.80;;
14883;SDS011;7534;50.762;7.000;2022-11-27T16:23:55;8.03;;;6.53;;
14883;SDS011;7534;50.762;7.000;2022-11-27T16:26:27;9.63;;;6.60;;
14883;SDS011;7534;50.762;7.000;2022-11-27T16:28:54;8.17;;;6.57;;
14883;SDS011;7534;50.762;7.000;2022-11-27T16:31:21;9.23;;;7.23;;
14883;SDS011;7534;50.762;7.000;2022-11-27T16:33:48;8.97;;;6.77;;
14883;SDS011;7534;50.762;7.000;2022-11-27T16:36:15;12.93;;;7.50;;
14883;SDS011;7534;50.762;7.000;2022-11-27T16:38:45;11.23;;;7.57;;
14883;SDS011;7534;50.762;7.000;2022-11-27T16:41:13;9.00;;;7.40;;
14883;SDS011;7534;50.762;7.000;2022-11-27T16:43:43;9.60;;;7.27;;
14883;SDS011;7534;50.762;7.000;2022-11-27T16:46:13;9.70;;;7.37;;
14883;SDS011;7534;50.762;7.000;2022-11-27T16:48:45;13.47;;;7.53;;
14883;SDS011;7534;50.762;7.000;2022-11-27T16:51:23;9.27;;;7.47;;
14883;SDS011;7534;50.762;7.000;2022-11-27T16:53:53;9.77;;;7.40;;
14883;SDS011;7534;50.762;7.000;2022-11-27T16:56:23;9.37;;;6.97;;
14883;SDS011;7534;50.762;7.000;2022-11-27T16:58:51;10.77;;;7.53;;
14883;SDS011;7534;50.762;7.000;2022-11-27T17:01:23;12.47;;;7.73;;
14883;SDS011;7534;50.762;7.000;2022-11-27T17:03:52;8.53;;;7.07;;
14883;SDS011;7534;50.762;7.000;2022-11-27T17:06:19;11.07;;;7.77;;
14883;SDS011;7534;50.762;7.000;2022-11-27T17:08:54;11.93;;;8.57;;
14883;SDS011;7534;50.762;7.000;2022-11-27T17:11:26;12.57;;;9.37;;
14883;SDS011;7534;50.762;7.000;2022-11-27T17:13:56;9.63;;;7.80;;
14883;SDS011;7534;50.762;7.000;2022-11-27T17:16:25;9.90;;;7.70;;
14883;SDS011;7534;50.762;7.000;2022-11-27T17:18:51;10.70;;;7.80;;
14883;SDS011;7534;50.762;7.000;2022-11-27T17:21:19;10.33;;;8.10;;
14883;SDS011;7534;50.762;7.000;2022-11-27T17:23:57;9.37;;;7.47;;
14883;SDS011;7534;50.762;7.000;2022-11-27T17:26:29;12.00;;;7.73;;
14883;SDS011;7534;50.762;7.000;2022-11-27T17:28:57;10.70;;;7.67;;
14883;SDS011;7534;50.762;7.000;2022-11-27T17:31:27;10.70;;;8.30;;
14883;SDS011;7534;50.762;7.000;2022-11-27T17:34:01;9.57;;;7.77;;
14883;SDS011;7534;50.762;7.000;2022-11-27T17:36:31;9.37;;;8.00;;
14883;SDS011;7534;50.762;7.000;2022-11-27T17:38:59;10.23;;;8.43;;